sensor_id;sensor_type;location;lat;lon;timestamp;temperature;humidity
60033;DHT22;45905;50.570;10.428;2023-08-21T00:01:58;22.00;99.90
60033;DHT22;45905;50.570;10.428;2023-08-21T00:06:53;22.00;99.90
60033;DHT22;45905;50.570;10.428;2023-08-21T00:09:20;22.00;99.90
60033;DHT22;45905;50.570;10.428;2023-08-21T00:14:15;21.80;99.90
60033;DHT22;45905;50.570;10.428;2023-08-21T00:16:42;21.90;99.90
60033;DHT22;45905;50.570;10.428;2023-08-21T00:19:10;21.70;99.90
60033;DHT22;45905;50.570;10.428;2023-08-21T00:21:37;21.90;99.90
60033;DHT22;45905;50.570;10.428;2023-08-21T00:24:04;21.70;99.90
60033;DHT22;45905;50.570;10.428;2023-08-21T00:41:20;21.70;99.90
60033;DHT22;45905;50.570;10.428;2023-08-21T00:46:15;21.70;99.90
60033;DHT22;45905;50.570;10.428;2023-08-21T00:48:44;21.70;99.90
60033;DHT22;45905;50.570;10.428;2023-08-21T00:51:14;21.70;99.90
60033;DHT22;45905;50.570;10.428;2023-08-21T00:58:37;21.60;99.90
60033;DHT22;45905;50.570;10.428;2023-08-21T01:01:05;21.70;99.90
60033;DHT22;45905;50.570;10.428;2023-08-21T01:08:42;21.50;99.90
60033;DHT22;45905;50.570;10.428;2023-08-21T01:14:42;21.40;99.90
60033;DHT22;45905;50.570;10.428;2023-08-21T01:17:16;21.20;99.90
60033;DHT22;45905;50.570;10.428;2023-08-21T01:19:47;21.40;99.90
60033;DHT22;45905;50.570;10.428;2023-08-21T01:24:44;21.40;99.90
60033;DHT22;45905;50.570;10.428;2023-08-21T01:27:13;21.40;99.90
60033;DHT22;45905;50.570;10.428;2023-08-21T01:29:42;21.80;99.90
60033;DHT22;45905;50.570;10.428;2023-08-21T01:34:59;21.00;99.90
60033;DHT22;45905;50.570;10.428;2023-08-21T01:37:29;21.20;99.90
60033;DHT22;45905;50.570;10.428;2023-08-21T01:40:00;21.20;99.90
60033;DHT22;45905;50.570;10.428;2023-08-21T01:42:27;21.30;99.90
60033;DHT22;45905;50.570;10.428;2023-08-21T01:44:54;21.20;99.90
60033;DHT22;45905;50.570;10.428;2023-08-21T01:52:19;21.50;99.90
60033;DHT22;45905;50.570;10.428;2023-08-21T01:54:50;21.10;99.90
60033;DHT22;45905;50.570;10.428;2023-08-21T02:02:12;20.70;99.90
60033;DHT22;45905;50.570;10.428;2023-08-21T02:07:07;20.90;99.90
60033;DHT22;45905;50.570;10.428;2023-08-21T02:09:34;20.90;99.90
60033;DHT22;45905;50.570;10.428;2023-08-21T02:12:02;20.60;99.90
60033;DHT22;45905;50.570;10.428;2023-08-21T02:16:57;21.20;99.90
60033;DHT22;45905;50.570;10.428;2023-08-21T02:19:24;20.60;99.90
60033;DHT22;45905;50.570;10.428;2023-08-21T02:21:51;20.50;99.90
60033;DHT22;45905;50.570;10.428;2023-08-21T02:31:41;21.00;99.90
60033;DHT22;45905;50.570;10.428;2023-08-21T02:36:37;20.70;99.90
60033;DHT22;45905;50.570;10.428;2023-08-21T02:46:27;20.70;99.90
60033;DHT22;45905;50.570;10.428;2023-08-21T02:51:23;20.50;99.90
60033;DHT22;45905;50.570;10.428;2023-08-21T02:56:18;20.90;99.90
60033;DHT22;45905;50.570;10.428;2023-08-21T03:08:36;20.90;99.90
60033;DHT22;45905;50.570;10.428;2023-08-21T03:18:31;20.90;99.90
60033;DHT22;45905;50.570;10.428;2023-08-21T03:21:01;20.60;99.90
60033;DHT22;45905;50.570;10.428;2023-08-21T03:30:53;20.70;99.90
60033;DHT22;45905;50.570;10.428;2023-08-21T03:35:53;20.50;99.90
60033;DHT22;45905;50.570;10.428;2023-08-21T03:40:51;20.70;99.90
60033;DHT22;45905;50.570;10.428;2023-08-21T03:43:18;20.50;99.90
60033;DHT22;45905;50.570;10.428;2023-08-21T03:53:08;20.00;99.90
60033;DHT22;45905;50.570;10.428;2023-08-21T04:15:18;20.40;99.90
60033;DHT22;45905;50.570;10.428;2023-08-21T04:20:13;20.70;99.90
60033;DHT22;45905;50.570;10.428;2023-08-21T04:27:37;20.60;99.90
60033;DHT22;45905;50.570;10.428;2023-08-21T04:30:05;20.60;99.90
60033;DHT22;45905;50.570;10.428;2023-08-21T04:39:56;20.20;99.90
60033;DHT22;45905;50.570;10.428;2023-08-21T04:47:26;20.50;99.90
60033;DHT22;45905;50.570;10.428;2023-08-21T04:49:57;20.70;99.90
60033;DHT22;45905;50.570;10.428;2023-08-21T05:02:19;20.30;99.90
60033;DHT22;45905;50.570;10.428;2023-08-21T05:19:36;20.70;99.90
60033;DHT22;45905;50.570;10.428;2023-08-21T05:51:43;20.30;99.90
60033;DHT22;45905;50.570;10.428;2023-08-21T05:54:10;20.50;99.90
60033;DHT22;45905;50.570;10.428;2023-08-21T05:56:39;20.20;99.90
60033;DHT22;45905;50.570;10.428;2023-08-21T05:59:10;20.30;99.90
60033;DHT22;45905;50.570;10.428;2023-08-21T06:16:33;20.40;99.90
60033;DHT22;45905;50.570;10.428;2023-08-21T07:15:53;21.10;99.90
60033;DHT22;45905;50.570;10.428;2023-08-21T07:20:52;21.10;99.90
60033;DHT22;45905;50.570;10.428;2023-08-21T08:27:37;22.30;99.90
60033;DHT22;45905;50.570;10.428;2023-08-21T08:44:53;23.10;99.90
60033;DHT22;45905;50.570;10.428;2023-08-21T08:47:23;22.80;99.90
60033;DHT22;45905;50.570;10.428;2023-08-21T08:49:54;22.40;99.90
60033;DHT22;45905;50.570;10.428;2023-08-21T08:52:22;23.50;99.90
60033;DHT22;45905;50.570;10.428;2023-08-21T08:54:54;23.10;99.90
60033;DHT22;45905;50.570;10.428;2023-08-21T08:57:24;23.20;99.90
60033;DHT22;45905;50.570;10.428;2023-08-21T09:07:17;23.30;99.90
60033;DHT22;45905;50.570;10.428;2023-08-21T09:09:48;23.40;99.90
60033;DHT22;45905;50.570;10.428;2023-08-21T09:12:17;23.20;99.90
60033;DHT22;45905;50.570;10.428;2023-08-21T09:14:46;23.50;99.90
60033;DHT22;45905;50.570;10.428;2023-08-21T09:17:14;23.60;99.90
60033;DHT22;45905;50.570;10.428;2023-08-21T09:19:43;23.70;99.90
60033;DHT22;45905;50.570;10.428;2023-08-21T09:22:13;23.80;99.90
60033;DHT22;45905;50.570;10.428;2023-08-21T09:25:05;23.90;99.90
60033;DHT22;45905;50.570;10.428;2023-08-21T09:27:35;24.00;99.90
60033;DHT22;45905;50.570;10.428;2023-08-21T09:30:05;24.10;99.90
60033;DHT22;45905;50.570;10.428;2023-08-21T09:32:58;24.20;99.90
60033;DHT22;45905;50.570;10.428;2023-08-21T09:35:33;24.30;99.90
60033;DHT22;45905;50.570;10.428;2023-08-21T09:38:00;24.60;99.90
60033;DHT22;45905;50.570;10.428;2023-08-21T09:40:28;24.70;99.90
60033;DHT22;45905;50.570;10.428;2023-08-21T09:42:56;24.60;99.90
60033;DHT22;45905;50.570;10.428;2023-08-21T09:45:24;24.60;99.90
60033;DHT22;45905;50.570;10.428;2023-08-21T09:47:52;24.90;99.90
60033;DHT22;45905;50.570;10.428;2023-08-21T09:50:21;24.60;99.90
60033;DHT22;45905;50.570;10.428;2023-08-21T09:52:50;25.60;99.90
60033;DHT22;45905;50.570;10.428;2023-08-21T09:57:45;24.70;99.90
60033;DHT22;45905;50.570;10.428;2023-08-21T10:02:50;25.10;99.90
60033;DHT22;45905;50.570;10.428;2023-08-21T10:05:19;25.00;99.90
60033;DHT22;45905;50.570;10.428;2023-08-21T10:07:48;25.30;99.90
60033;DHT22;45905;50.570;10.428;2023-08-21T10:10:17;25.50;99.90
60033;DHT22;45905;50.570;10.428;2023-08-21T10:15:13;25.60;99.90
60033;DHT22;45905;50.570;10.428;2023-08-21T10:17:43;25.70;99.60
60033;DHT22;45905;50.570;10.428;2023-08-21T10:20:10;25.90;99.20
60033;DHT22;45905;50.570;10.428;2023-08-21T10:22:46;25.60;98.60
60033;DHT22;45905;50.570;10.428;2023-08-21T10:25:19;25.90;98.60
60033;DHT22;45905;50.570;10.428;2023-08-21T10:27:52;24.30;97.70
60033;DHT22;45905;50.570;10.428;2023-08-21T10:30:23;26.00;98.20
60033;DHT22;45905;50.570;10.428;2023-08-21T10:32:59;26.20;99.20
60033;DHT22;45905;50.570;10.428;2023-08-21T10:35:31;26.20;98.60
60033;DHT22;45905;50.570;10.428;2023-08-21T10:38:17;26.30;98.50
60033;DHT22;45905;50.570;10.428;2023-08-21T10:41:06;26.40;98.60
60033;DHT22;45905;50.570;10.428;2023-08-21T10:43:43;26.50;97.80
60033;DHT22;45905;50.570;10.428;2023-08-21T10:46:12;26.30;96.20
60033;DHT22;45905;50.570;10.428;2023-08-21T10:48:40;26.90;96.60
60033;DHT22;45905;50.570;10.428;2023-08-21T10:51:08;26.60;95.50
60033;DHT22;45905;50.570;10.428;2023-08-21T10:53:36;26.40;96.10
60033;DHT22;45905;50.570;10.428;2023-08-21T10:56:05;26.60;96.10
60033;DHT22;45905;50.570;10.428;2023-08-21T10:58:42;26.50;96.20
60033;DHT22;45905;50.570;10.428;2023-08-21T11:03:40;26.80;96.20
60033;DHT22;45905;50.570;10.428;2023-08-21T11:06:08;26.80;96.00
60033;DHT22;45905;50.570;10.428;2023-08-21T11:11:05;27.30;95.50
60033;DHT22;45905;50.570;10.428;2023-08-21T11:13:33;27.30;95.30
60033;DHT22;45905;50.570;10.428;2023-08-21T11:16:02;26.40;94.40
60033;DHT22;45905;50.570;10.428;2023-08-21T11:18:36;27.20;95.20
60033;DHT22;45905;50.570;10.428;2023-08-21T11:21:08;27.60;94.70
60033;DHT22;45905;50.570;10.428;2023-08-21T11:23:39;27.90;95.00
60033;DHT22;45905;50.570;10.428;2023-08-21T11:26:10;27.90;93.60
60033;DHT22;45905;50.570;10.428;2023-08-21T11:28:47;28.30;92.70
60033;DHT22;45905;50.570;10.428;2023-08-21T11:31:16;28.50;92.60
60033;DHT22;45905;50.570;10.428;2023-08-21T11:33:50;28.60;92.80
60033;DHT22;45905;50.570;10.428;2023-08-21T11:36:18;28.60;92.00
60033;DHT22;45905;50.570;10.428;2023-08-21T11:39:02;28.40;91.20
60033;DHT22;45905;50.570;10.428;2023-08-21T11:41:53;28.20;91.70
60033;DHT22;45905;50.570;10.428;2023-08-21T11:44:22;28.10;92.20
60033;DHT22;45905;50.570;10.428;2023-08-21T11:46:52;28.10;93.00
60033;DHT22;45905;50.570;10.428;2023-08-21T11:51:49;28.40;92.40
60033;DHT22;45905;50.570;10.428;2023-08-21T11:56:46;28.50;90.00
60033;DHT22;45905;50.570;10.428;2023-08-21T11:59:23;28.80;89.80
60033;DHT22;45905;50.570;10.428;2023-08-21T12:01:50;28.80;90.40
60033;DHT22;45905;50.570;10.428;2023-08-21T12:04:18;29.20;90.80
60033;DHT22;45905;50.570;10.428;2023-08-21T12:06:46;29.10;90.50
60033;DHT22;45905;50.570;10.428;2023-08-21T12:09:13;29.10;88.90
60033;DHT22;45905;50.570;10.428;2023-08-21T12:11:41;29.50;87.10
60033;DHT22;45905;50.570;10.428;2023-08-21T12:14:08;29.50;87.50
60033;DHT22;45905;50.570;10.428;2023-08-21T12:19:04;29.70;85.80
60033;DHT22;45905;50.570;10.428;2023-08-21T12:21:31;29.60;85.00
60033;DHT22;45905;50.570;10.428;2023-08-21T12:26:28;29.80;84.80
60033;DHT22;45905;50.570;10.428;2023-08-21T12:29:10;29.50;85.70
60033;DHT22;45905;50.570;10.428;2023-08-21T12:31:37;29.70;86.20
60033;DHT22;45905;50.570;10.428;2023-08-21T12:36:36;30.00;82.90
60033;DHT22;45905;50.570;10.428;2023-08-21T12:41:32;30.20;82.70
60033;DHT22;45905;50.570;10.428;2023-08-21T12:44:00;30.50;83.20
60033;DHT22;45905;50.570;10.428;2023-08-21T12:51:28;28.60;81.00
60033;DHT22;45905;50.570;10.428;2023-08-21T12:53:56;30.50;83.20
60033;DHT22;45905;50.570;10.428;2023-08-21T12:56:23;30.70;84.90
60033;DHT22;45905;50.570;10.428;2023-08-21T13:03:47;30.70;80.50
60033;DHT22;45905;50.570;10.428;2023-08-21T13:13:37;30.60;80.00
60033;DHT22;45905;50.570;10.428;2023-08-21T13:21:00;30.70;80.50
60033;DHT22;45905;50.570;10.428;2023-08-21T13:23:29;30.80;80.90
60033;DHT22;45905;50.570;10.428;2023-08-21T13:25:59;30.90;81.00
60033;DHT22;45905;50.570;10.428;2023-08-21T13:30:56;31.00;79.40
60033;DHT22;45905;50.570;10.428;2023-08-21T13:53:05;32.50;75.50
60033;DHT22;45905;50.570;10.428;2023-08-21T13:58:00;32.40;74.40
60033;DHT22;45905;50.570;10.428;2023-08-21T14:00:27;32.50;76.50
60033;DHT22;45905;50.570;10.428;2023-08-21T14:10:17;32.30;74.50
60033;DHT22;45905;50.570;10.428;2023-08-21T14:12:44;32.30;74.30
60033;DHT22;45905;50.570;10.428;2023-08-21T14:20:09;33.00;75.10
60033;DHT22;45905;50.570;10.428;2023-08-21T14:25:05;32.00;75.50
60033;DHT22;45905;50.570;10.428;2023-08-21T14:37:27;32.10;72.10
60033;DHT22;45905;50.570;10.428;2023-08-21T14:47:17;32.00;72.70
60033;DHT22;45905;50.570;10.428;2023-08-21T14:49:45;32.20;72.80
60033;DHT22;45905;50.570;10.428;2023-08-21T15:02:03;32.80;68.40
60033;DHT22;45905;50.570;10.428;2023-08-21T15:09:26;32.50;68.30
60033;DHT22;45905;50.570;10.428;2023-08-21T15:14:20;32.50;68.20
60033;DHT22;45905;50.570;10.428;2023-08-21T15:19:15;32.90;69.60
60033;DHT22;45905;50.570;10.428;2023-08-21T15:26:38;33.10;67.90
60033;DHT22;45905;50.570;10.428;2023-08-21T15:29:05;33.10;66.70
60033;DHT22;45905;50.570;10.428;2023-08-21T15:34:00;30.00;64.40
60033;DHT22;45905;50.570;10.428;2023-08-21T15:36:30;35.90;69.20
60033;DHT22;45905;50.570;10.428;2023-08-21T15:43:52;33.10;64.40
60033;DHT22;45905;50.570;10.428;2023-08-21T15:46:20;33.00;64.80
60033;DHT22;45905;50.570;10.428;2023-08-21T15:51:15;33.00;65.90
60033;DHT22;45905;50.570;10.428;2023-08-21T15:53:42;32.90;65.50
60033;DHT22;45905;50.570;10.428;2023-08-21T15:58:37;32.90;64.50
60033;DHT22;45905;50.570;10.428;2023-08-21T16:01:05;32.90;64.50
60033;DHT22;45905;50.570;10.428;2023-08-21T16:08:30;32.70;64.30
60033;DHT22;45905;50.570;10.428;2023-08-21T16:13:26;32.80;65.80
60033;DHT22;45905;50.570;10.428;2023-08-21T16:15:53;32.80;65.20
60033;DHT22;45905;50.570;10.428;2023-08-21T16:18:20;32.70;65.10
60033;DHT22;45905;50.570;10.428;2023-08-21T16:20:47;32.70;66.10
60033;DHT22;45905;50.570;10.428;2023-08-21T16:23:15;32.70;65.60
60033;DHT22;45905;50.570;10.428;2023-08-21T16:25:42;32.70;64.90
60033;DHT22;45905;50.570;10.428;2023-08-21T16:28:09;32.60;64.70
60033;DHT22;45905;50.570;10.428;2023-08-21T16:30:37;32.50;65.60
60033;DHT22;45905;50.570;10.428;2023-08-21T16:33:04;32.50;66.70
60033;DHT22;45905;50.570;10.428;2023-08-21T16:37:59;32.50;66.80
60033;DHT22;45905;50.570;10.428;2023-08-21T16:42:54;32.60;67.20
60033;DHT22;45905;50.570;10.428;2023-08-21T16:45:21;32.50;66.60
60033;DHT22;45905;50.570;10.428;2023-08-21T16:47:48;32.50;66.70
60033;DHT22;45905;50.570;10.428;2023-08-21T16:50:17;32.40;67.20
60033;DHT22;45905;50.570;10.428;2023-08-21T16:52:44;32.50;66.30
60033;DHT22;45905;50.570;10.428;2023-08-21T16:55:12;32.40;66.80
60033;DHT22;45905;50.570;10.428;2023-08-21T16:57:39;32.30;67.20
60033;DHT22;45905;50.570;10.428;2023-08-21T17:00:07;32.30;67.20
60033;DHT22;45905;50.570;10.428;2023-08-21T17:02:38;32.00;67.20
60033;DHT22;45905;50.570;10.428;2023-08-21T17:05:07;31.90;67.60
60033;DHT22;45905;50.570;10.428;2023-08-21T17:07:34;32.00;67.80
60033;DHT22;45905;50.570;10.428;2023-08-21T17:10:06;32.00;68.80
60033;DHT22;45905;50.570;10.428;2023-08-21T17:15:04;31.60;68.80
60033;DHT22;45905;50.570;10.428;2023-08-21T17:19:59;31.90;69.80
60033;DHT22;45905;50.570;10.428;2023-08-21T17:24:55;31.70;70.50
60033;DHT22;45905;50.570;10.428;2023-08-21T17:30:08;31.70;70.30
60033;DHT22;45905;50.570;10.428;2023-08-21T17:32:36;31.70;70.10
60033;DHT22;45905;50.570;10.428;2023-08-21T17:35:04;31.50;70.40
60033;DHT22;45905;50.570;10.428;2023-08-21T17:37:31;31.60;71.30
60033;DHT22;45905;50.570;10.428;2023-08-21T17:39:59;31.40;71.80
60033;DHT22;45905;50.570;10.428;2023-08-21T17:42:27;31.20;72.00
60033;DHT22;45905;50.570;10.428;2023-08-21T17:44:54;31.30;72.00
60033;DHT22;45905;50.570;10.428;2023-08-21T17:47:22;31.40;72.00
60033;DHT22;45905;50.570;10.428;2023-08-21T17:49:49;31.30;72.50
60033;DHT22;45905;50.570;10.428;2023-08-21T17:52:17;31.20;72.80
60033;DHT22;45905;50.570;10.428;2023-08-21T17:54:44;31.00;72.80
60033;DHT22;45905;50.570;10.428;2023-08-21T18:02:07;30.70;74.50
60033;DHT22;45905;50.570;10.428;2023-08-21T18:04:41;30.70;75.60
60033;DHT22;45905;50.570;10.428;2023-08-21T18:12:06;30.60;77.50
60033;DHT22;45905;50.570;10.428;2023-08-21T18:14:33;30.50;77.70
60033;DHT22;45905;50.570;10.428;2023-08-21T18:17:01;30.40;78.10
60033;DHT22;45905;50.570;10.428;2023-08-21T18:19:33;30.30;78.40
60033;DHT22;45905;50.570;10.428;2023-08-21T18:27:07;29.90;78.90
60033;DHT22;45905;50.570;10.428;2023-08-21T18:29:37;29.90;79.30
60033;DHT22;45905;50.570;10.428;2023-08-21T18:32:08;29.80;79.60
60033;DHT22;45905;50.570;10.428;2023-08-21T18:34:36;29.70;79.80
60033;DHT22;45905;50.570;10.428;2023-08-21T18:37:07;29.50;80.00
60033;DHT22;45905;50.570;10.428;2023-08-21T18:39:35;29.30;80.50
60033;DHT22;45905;50.570;10.428;2023-08-21T18:42:03;29.30;80.90
60033;DHT22;45905;50.570;10.428;2023-08-21T18:44:30;29.20;81.50
60033;DHT22;45905;50.570;10.428;2023-08-21T18:46:58;29.00;81.60
60033;DHT22;45905;50.570;10.428;2023-08-21T18:51:53;28.80;82.00
60033;DHT22;45905;50.570;10.428;2023-08-21T18:54:20;28.60;82.20
60033;DHT22;45905;50.570;10.428;2023-08-21T18:56:54;28.50;82.10
60033;DHT22;45905;50.570;10.428;2023-08-21T18:59:21;28.40;82.20
60033;DHT22;45905;50.570;10.428;2023-08-21T19:04:16;28.30;82.90
60033;DHT22;45905;50.570;10.428;2023-08-21T19:06:43;27.90;82.40
60033;DHT22;45905;50.570;10.428;2023-08-21T19:09:30;28.00;83.00
60033;DHT22;45905;50.570;10.428;2023-08-21T19:11:57;27.30;82.60
60033;DHT22;45905;50.570;10.428;2023-08-21T19:14:24;27.70;83.70
60033;DHT22;45905;50.570;10.428;2023-08-21T19:16:53;27.50;84.40
60033;DHT22;45905;50.570;10.428;2023-08-21T19:19:21;27.20;84.70
60033;DHT22;45905;50.570;10.428;2023-08-21T19:21:49;27.30;84.50
60033;DHT22;45905;50.570;10.428;2023-08-21T19:26:44;27.10;84.70
60033;DHT22;45905;50.570;10.428;2023-08-21T19:29:12;31.30;88.50
60033;DHT22;45905;50.570;10.428;2023-08-21T19:34:06;26.60;86.30
60033;DHT22;45905;50.570;10.428;2023-08-21T19:39:03;26.60;86.40
60033;DHT22;45905;50.570;10.428;2023-08-21T19:41:31;26.20;86.60
60033;DHT22;45905;50.570;10.428;2023-08-21T19:43:58;26.50;87.40
60033;DHT22;45905;50.570;10.428;2023-08-21T19:46:25;26.40;87.30
60033;DHT22;45905;50.570;10.428;2023-08-21T19:48:52;26.20;88.30
60033;DHT22;45905;50.570;10.428;2023-08-21T19:51:19;26.40;88.80
60033;DHT22;45905;50.570;10.428;2023-08-21T19:56:14;26.10;89.10
60033;DHT22;45905;50.570;10.428;2023-08-21T19:58:42;25.80;89.60
60033;DHT22;45905;50.570;10.428;2023-08-21T20:01:09;25.80;90.10
60033;DHT22;45905;50.570;10.428;2023-08-21T20:03:36;25.80;89.80
60033;DHT22;45905;50.570;10.428;2023-08-21T20:06:05;25.70;90.00
60033;DHT22;45905;50.570;10.428;2023-08-21T20:11:02;24.90;90.00
60033;DHT22;45905;50.570;10.428;2023-08-21T20:13:32;25.40;90.40
60033;DHT22;45905;50.570;10.428;2023-08-21T20:15:59;25.40;90.30
60033;DHT22;45905;50.570;10.428;2023-08-21T20:18:26;25.40;90.50
60033;DHT22;45905;50.570;10.428;2023-08-21T20:20:54;25.30;90.90
60033;DHT22;45905;50.570;10.428;2023-08-21T20:23:21;25.20;90.80
60033;DHT22;45905;50.570;10.428;2023-08-21T20:25:49;25.20;90.90
60033;DHT22;45905;50.570;10.428;2023-08-21T20:28:16;25.30;91.10
60033;DHT22;45905;50.570;10.428;2023-08-21T20:30:45;25.20;91.60
60033;DHT22;45905;50.570;10.428;2023-08-21T20:33:12;25.00;91.90
60033;DHT22;45905;50.570;10.428;2023-08-21T20:35:39;24.80;92.00
60033;DHT22;45905;50.570;10.428;2023-08-21T20:38:07;24.70;92.00
60033;DHT22;45905;50.570;10.428;2023-08-21T20:40:36;24.80;92.10
60033;DHT22;45905;50.570;10.428;2023-08-21T20:43:03;24.80;92.30
60033;DHT22;45905;50.570;10.428;2023-08-21T20:45:30;24.70;92.40
60033;DHT22;45905;50.570;10.428;2023-08-21T20:47:58;24.60;92.50
60033;DHT22;45905;50.570;10.428;2023-08-21T20:50:25;24.70;92.60
60033;DHT22;45905;50.570;10.428;2023-08-21T20:52:53;24.50;92.60
60033;DHT22;45905;50.570;10.428;2023-08-21T20:55:20;24.40;92.90
60033;DHT22;45905;50.570;10.428;2023-08-21T20:57:47;24.30;93.00
60033;DHT22;45905;50.570;10.428;2023-08-21T21:00:15;24.30;93.20
60033;DHT22;45905;50.570;10.428;2023-08-21T21:02:42;24.20;93.30
60033;DHT22;45905;50.570;10.428;2023-08-21T21:05:10;24.20;93.50
60033;DHT22;45905;50.570;10.428;2023-08-21T21:07:37;24.30;93.70
60033;DHT22;45905;50.570;10.428;2023-08-21T21:10:06;24.10;93.70
60033;DHT22;45905;50.570;10.428;2023-08-21T21:12:34;23.80;93.70
60033;DHT22;45905;50.570;10.428;2023-08-21T21:15:02;24.10;93.90
60033;DHT22;45905;50.570;10.428;2023-08-21T21:19:58;24.00;93.90
60033;DHT22;45905;50.570;10.428;2023-08-21T21:22:25;23.90;93.90
60033;DHT22;45905;50.570;10.428;2023-08-21T21:24:52;23.90;93.80
60033;DHT22;45905;50.570;10.428;2023-08-21T21:27:20;24.20;93.80
60033;DHT22;45905;50.570;10.428;2023-08-21T21:29:47;23.90;93.30
60033;DHT22;45905;50.570;10.428;2023-08-21T21:32:14;23.80;93.20
60033;DHT22;45905;50.570;10.428;2023-08-21T21:34:43;24.00;93.30
60033;DHT22;45905;50.570;10.428;2023-08-21T21:37:10;23.80;93.20
60033;DHT22;45905;50.570;10.428;2023-08-21T21:42:06;23.90;93.30
60033;DHT22;45905;50.570;10.428;2023-08-21T21:44:34;23.60;93.10
60033;DHT22;45905;50.570;10.428;2023-08-21T21:47:01;23.80;94.00
60033;DHT22;45905;50.570;10.428;2023-08-21T21:49:28;23.60;94.40
60033;DHT22;45905;50.570;10.428;2023-08-21T21:51:55;23.50;94.50
60033;DHT22;45905;50.570;10.428;2023-08-21T21:54:22;23.50;94.20
60033;DHT22;45905;50.570;10.428;2023-08-21T21:56:50;23.40;93.80
60033;DHT22;45905;50.570;10.428;2023-08-21T21:59:18;22.90;93.70
60033;DHT22;45905;50.570;10.428;2023-08-21T22:01:46;23.30;94.60
60033;DHT22;45905;50.570;10.428;2023-08-21T22:04:13;23.10;95.10
60033;DHT22;45905;50.570;10.428;2023-08-21T22:09:09;24.90;96.30
60033;DHT22;45905;50.570;10.428;2023-08-21T22:11:36;23.20;95.20
60033;DHT22;45905;50.570;10.428;2023-08-21T22:14:03;23.20;94.90
60033;DHT22;45905;50.570;10.428;2023-08-21T22:16:31;23.20;95.20
60033;DHT22;45905;50.570;10.428;2023-08-21T22:18:59;23.00;95.30
60033;DHT22;45905;50.570;10.428;2023-08-21T22:21:26;22.80;95.50
60033;DHT22;45905;50.570;10.428;2023-08-21T22:23:53;22.90;96.00
60033;DHT22;45905;50.570;10.428;2023-08-21T22:36:21;22.70;95.80
60033;DHT22;45905;50.570;10.428;2023-08-21T22:38:48;22.70;95.80
60033;DHT22;45905;50.570;10.428;2023-08-21T22:41:16;22.70;95.70
60033;DHT22;45905;50.570;10.428;2023-08-21T22:43:43;25.40;96.80
60033;DHT22;45905;50.570;10.428;2023-08-21T22:46:10;22.60;96.10
60033;DHT22;45905;50.570;10.428;2023-08-21T22:48:38;22.60;96.30
60033;DHT22;45905;50.570;10.428;2023-08-21T22:51:05;22.60;96.00
60033;DHT22;45905;50.570;10.428;2023-08-21T22:56:05;22.40;95.40
60033;DHT22;45905;50.570;10.428;2023-08-21T22:58:32;22.40;95.40
60033;DHT22;45905;50.570;10.428;2023-08-21T23:00:59;22.20;95.20
60033;DHT22;45905;50.570;10.428;2023-08-21T23:03:27;22.30;95.70
60033;DHT22;45905;50.570;10.428;2023-08-21T23:05:55;22.30;96.20
60033;DHT22;45905;50.570;10.428;2023-08-21T23:08:23;22.30;96.70
60033;DHT22;45905;50.570;10.428;2023-08-21T23:13:20;22.30;96.60
60033;DHT22;45905;50.570;10.428;2023-08-21T23:15:48;22.30;96.30
60033;DHT22;45905;50.570;10.428;2023-08-21T23:18:17;22.10;95.90
60033;DHT22;45905;50.570;10.428;2023-08-21T23:20:59;22.10;95.90
60033;DHT22;45905;50.570;10.428;2023-08-21T23:23:28;22.10;96.20
60033;DHT22;45905;50.570;10.428;2023-08-21T23:25:59;22.00;96.70
60033;DHT22;45905;50.570;10.428;2023-08-21T23:28:29;22.00;97.30
60033;DHT22;45905;50.570;10.428;2023-08-21T23:30:57;22.00;97.00
60033;DHT22;45905;50.570;10.428;2023-08-21T23:35:53;21.90;96.30
60033;DHT22;45905;50.570;10.428;2023-08-21T23:38:20;21.90;96.70
60033;DHT22;45905;50.570;10.428;2023-08-21T23:40:48;21.80;96.90
60033;DHT22;45905;50.570;10.428;2023-08-21T23:43:15;21.80;97.10
60033;DHT22;45905;50.570;10.428;2023-08-21T23:45:43;21.70;96.80
60033;DHT22;45905;50.570;10.428;2023-08-21T23:48:11;21.60;96.50
60033;DHT22;45905;50.570;10.428;2023-08-21T23:50:38;21.60;96.40
60033;DHT22;45905;50.570;10.428;2023-08-21T23:53:06;21.60;96.80
60033;DHT22;45905;50.570;10.428;2023-08-21T23:55:35;21.20;97.10
60033;DHT22;45905;50.570;10.428;2023-08-21T23:58:04;21.60;98.00
